x

Grays Reef - 40 Nm Southeast Of Savannah, Ga (41008) Wave Buoy

9:50pm - Sat 27th May 2017 All times are EDT. -4 hours from GMT.

  • Sig Wave height 2.0ft
  • Swell Direction
  • Peak Period 7s
  • Average Period 4s
  • Wind
    16mph, 18mph gusts
  • Sea Temp 78°f
  • Air Temp 78°f
  • Sea Pressure 1014mb
  • Grays Reef - 40 Nm Southeast Of Savannah, Ga
  • Grays Reef - 40 Nm Southeast Of Savannah, Ga

More Historic Weather Station data

Upgrade to MSW Pro to gain access to the past 30 days of data for over 8000 Wavebouys and Weather Stations around the globe.

Join Pro

Comparision Forecast

View Surf forecast
   
Sat 05/27 9:50pm 2ft 7s 4s 16 18 mph 1014mb 78f 78f
8:50pm 2ft 8s 4s 16 20 mph 1013.8mb 78f 79f
7:50pm 2ft 7s 4s 18 20 mph 1013.8mb 78f 79f
6:50pm 2ft 7s 4s 16 20 mph 1014.5mb 78f 79f
5:50pm 2ft 7s 4s 13 16 mph 1015mb 79f 79f
4:50pm 1.6ft 8s 4s 13 16 mph 1015.6mb 79f 79f
3:50pm 1.6ft 8s 5s 13 13 mph 1016.2mb 79f 78f
2:50pm 1.6ft 8s 5s 11 11 mph 1017mb 79f 79f
1:50pm 1.6ft 8s 5s 9 9 mph 1017.3mb 78f 78f
12:50pm 2ft 8s 4s 9 11 mph 1017.6mb 78f 77f
11:50am 2ft 8s 4s 9 11 mph 1017.5mb 78f 76f
10:50am 2.5ft 4s 4s 9 9 mph 1017.4mb 77f 75f
9:50am 2.5ft 4s 4s 9 9 mph 1017.6mb 77f 75f
8:50am 2.5ft 4s 4s 11 13 mph 1017.6mb 77f 74f
7:50am 2.5ft 7s 4s 11 13 mph 1017.4mb 77f 75f
6:50am 2.5ft 4s 4s 11 13 mph 1017.2mb 77f 76f
5:50am 2.5ft 4s 4s 13 16 mph 1016.8mb 77f 76f
4:50am 2.5ft 4s 4s 13 16 mph 1016.4mb 77f 76f
3:50am 2ft 4s 4s 11 13 mph 1016.3mb 77f 77f
2:50am 2.5ft 4s 4s 13 18 mph 1016.5mb 77f 76f
1:50am 2ft 4s 4s 13 16 mph 1016.8mb 77f 76f
12:50am 2ft 8s 4s 13 16 mph 1017mb 77f 76f
Fri 05/26 11:50pm 2ft 3s 4s 16 16 mph 1016.7mb 77f 77f
10:50pm 2ft 3s 4s 16 18 mph 1016.3mb 77f 77f
9:50pm 1.6ft 8s 4s 16 18 mph 1015.7mb 77f 77f
8:50pm 1.6ft 7s 4s 13 16 mph 1015.4mb 77f 77f
7:50pm 1.6ft 8s 4s 13 13 mph 1015.5mb 78f 77f
6:50pm 1.6ft 7s 5s 11 13 mph 1015.3mb 78f 77f
5:50pm 1.3ft 7s 4s 9 11 mph 1015.6mb 78f 76f
4:50pm 1.3ft 8s 4s 11 11 mph 1015.7mb 78f 76f
3:50pm 1ft 8s 5s 11 11 mph 1016.2mb 78f 75f
2:50pm 1.3ft 8s 6s 9 11 mph 1017mb 78f 74f
1:50pm 1ft 8s 5s 7 9 mph 1017.4mb 78f 75f
12:50pm 1.3ft 8s 4s 7 9 mph 1017.6mb 78f 74f
11:50am 1.6ft 8s 4s 7 9 mph 1017.5mb 77f 73f
10:50am 1.6ft 8s 4s 7 9 mph 1017.6mb 77f 73f
9:50am 2ft 8s 4s 9 9 mph 1017.5mb 77f 72f
8:50am 2ft 7s 4s 11 13 mph 1017.2mb 77f 72f
7:50am 2ft 7s 4s 11 13 mph 1016.7mb 76f 72f
6:50am 2ft 7s 4s 11 13 mph 1016.2mb 76f 72f
5:50am 1.6ft 7s 4s 13 16 mph 1015.5mb 76f 72f
4:50am 1.6ft 7s 4s 13 16 mph 1014.6mb 76f 74f
3:50am 1.6ft 7s 4s 13 18 mph 1013.8mb 77f 75f
2:50am 1.6ft 3s 3s 16 18 mph 1013.5mb 77f 75f
1:50am  -   -   -  16 18 mph 1013.7mb 77f 76f
12:50am 2ft 8s 3s 16 20 mph 1013.7mb 77f 76f
Thu 05/25 11:50pm 2ft 4s 3s 16 18 mph 1013.4mb 77f 76f
10:50pm 2.5ft 3s 4s 16 18 mph 1012.6mb 77f 76f
9:50pm 2.5ft 4s 4s 16 18 mph 1011.6mb 77f 76f
8:50pm 2.5ft 4s 4s 18 20 mph 1010.7mb 77f 77f
7:50pm 3.5ft 4s 4s 18 20 mph 1009.6mb 77f 77f
6:50pm 3.5ft 4s 4s 18 20 mph 1009mb 77f 77f
5:50pm 3.5ft 5s 4s 18 22 mph 1008.6mb 77f 76f
4:50pm 4ft 5s 4s 18 22 mph 1008.4mb 77f 76f
3:50pm 4.5ft 5s 4s 20 27 mph 1008.3mb 77f 75f
2:50pm 4.5ft 5s 4s 25 31 mph 1008.4mb 77f 74f
1:50pm 4.5ft 4s 4s 25 29 mph 1008.6mb 77f 73f
12:50pm 4ft 4s 4s 25 29 mph 1008.2mb 77f 72f
11:50am 3.5ft 7s 4s 25 31 mph 1008.1mb 77f 71f
10:50am 4ft 7s 4s 22 29 mph 1007.5mb 77f 71f
9:50am 4ft 7s 4s 18 22 mph 1007.5mb 77f 70f
8:50am 4.5ft 7s 5s 20 22 mph 1007.1mb 77f 71f
7:50am 4.5ft 6s 5s 16 20 mph 1006.4mb 77f 71f
6:50am 4.5ft 5s 5s 22 25 mph 1005.9mb 77f 71f
5:50am 5.5ft 6s 5s 25 29 mph 1004.5mb 77f 71f
4:50am 6ft 5s 5s 27 31 mph 1003.8mb 77f 72f
3:50am 6ft 6s 5s 27 31 mph 1003.1mb 77f 73f
2:50am 6ft 6s 5s 27 34 mph 1002.8mb 78f 74f
1:50am 5.5ft 7s 5s 34 38 mph 1002.4mb 78f 75f
12:50am 6ft 6s 5s 29 34 mph 1002.5mb 78f 76f
Wed 05/24 11:50pm 6ft 6s 5s 27 34 mph 1002.7mb 78f 76f
10:50pm 5ft 6s 5s 27 34 mph 1001.9mb 78f 76f
9:50pm 5ft 6s 5s 27 34 mph 1000.7mb 78f 76f
8:50pm 4.5ft 6s 4s 25 29 mph 1000.8mb 78f 76f
7:50pm 4.5ft 5s 4s 22 31 mph 1000.3mb 78f 76f
6:50pm 4.5ft 5s 4s 25 29 mph 1000.6mb 78f 76f
5:50pm 4.5ft 5s 4s 25 31 mph 1001.8mb 78f 75f
4:50pm 3.5ft 5s 4s 27 38 mph 1002.7mb 78f 76f
3:50pm 3.5ft 5s 4s 13 18 mph 1003.3mb 78f 73f
2:50pm 4ft 6s 4s 16 20 mph 1005mb 78f 73f
1:50pm 4.5ft 5s 4s 22 27 mph 1006.2mb 78f 73f
12:50pm 4.5ft 6s 4s 27 31 mph 1006.4mb 78f 75f
11:50am 4.5ft 6s 4s 20 25 mph 1005.9mb 78f 74f
10:50am 4ft 6s 4s 18 22 mph 1004.7mb 78f 78f
9:50am 4.5ft 6s 4s 20 25 mph 1005.2mb 78f 77f
8:50am 4.5ft 6s 4s 20 22 mph 1005.3mb 78f 78f
7:50am 4.5ft 5s 4s 22 25 mph 1005.5mb 78f 78f
6:50am 4.5ft 5s 4s 22 27 mph 1005.6mb 78f 78f
5:50am 4.5ft 5s 4s 25 29 mph 1005.8mb 78f 77f
4:50am 4.5ft 5s 4s 22 27 mph 1005.8mb 78f 77f
3:50am 4.5ft 5s 4s 22 27 mph 1006.1mb 78f 77f